Time;durP1;ratioP1;P1;durP2;ratioP2;P2;SDS_P1;SDS_P2;PMS_P1;PMS_P2;Temp;Humidity;BMP_temperature;BMP_pressure;BME280_temperature;BME280_humidity;BME280_pressure;Samples;Min_cycle;Max_cycle;Signal;HPM_P1;HPM_P2
2023/07/23 00:00:30;;;;;;;12.20;6.75;;;;;;;19.40;100.00;92645.66;4812995;29;20490;-79
2023/07/23 00:02:56;;;;;;;9.95;6.88;;;;;;;19.39;100.00;92641.47;4811984;29;20206;-79
2023/07/23 00:05:26;;;;;;;11.98;7.22;;;;;;;19.41;100.00;92639.22;4810526;29;20076;-78
2023/07/23 00:07:57;;;;;;;17.65;7.60;;;;;;;19.42;100.00;92640.78;4818593;29;20046;-78
2023/07/23 00:10:24;;;;;;;13.73;6.97;;;;;;;19.44;100.00;92641.22;4810525;29;20568;-78
2023/07/23 00:12:49;;;;;;;14.30;7.15;;;;;;;19.43;100.00;92640.44;4809651;29;20066;-78
2023/07/23 00:15:15;;;;;;;12.07;7.40;;;;;;;19.45;100.00;92645.41;4810504;29;20563;-79
2023/07/23 00:17:41;;;;;;;12.20;7.43;;;;;;;19.47;100.00;92640.53;4808234;29;20058;-78
2023/07/23 00:20:11;;;;;;;12.90;7.10;;;;;;;19.48;100.00;92637.53;4810386;29;20054;-78
2023/07/23 00:22:37;;;;;;;14.85;8.70;;;;;;;19.51;100.00;92636.88;4810398;29;20038;-79
2023/07/23 00:25:03;;;;;;;14.60;8.43;;;;;;;19.54;100.00;92635.41;4810801;29;20043;-79
2023/07/23 00:27:29;;;;;;;18.42;9.32;;;;;;;19.56;100.00;92638.50;4809535;29;20096;-78
2023/07/23 00:29:55;;;;;;;14.65;8.68;;;;;;;19.56;100.00;92633.19;4810814;29;20287;-79
2023/07/23 00:32:21;;;;;;;16.50;7.85;;;;;;;19.57;100.00;92629.44;4809982;29;20043;-78
2023/07/23 00:34:47;;;;;;;16.02;8.38;;;;;;;19.56;100.00;92625.22;4808106;29;20042;-78
2023/07/23 00:37:12;;;;;;;12.95;8.93;;;;;;;19.54;100.00;92628.25;4809433;29;20535;-78
2023/07/23 00:39:39;;;;;;;12.38;8.18;;;;;;;19.55;100.00;92623.69;4810564;29;20056;-79
2023/07/23 00:42:05;;;;;;;16.80;8.20;;;;;;;19.53;100.00;92621.38;4794256;29;20479;-79
2023/07/23 00:44:31;;;;;;;16.85;8.48;;;;;;;19.53;100.00;92631.22;4807893;29;20034;-78
2023/07/23 00:46:57;;;;;;;13.45;7.93;;;;;;;19.49;100.00;92630.34;4809336;29;20050;-79
2023/07/23 00:49:23;;;;;;;13.32;7.03;;;;;;;19.45;100.00;92634.78;4814725;29;20525;-79
2023/07/23 00:51:50;;;;;;;14.93;9.27;;;;;;;19.43;100.00;92635.13;4811358;29;20191;-79
2023/07/23 00:54:16;;;;;;;12.38;7.32;;;;;;;19.40;100.00;92630.50;4808694;29;20054;-78
2023/07/23 00:56:44;;;;;;;14.52;7.18;;;;;;;19.38;100.00;92634.59;4810121;29;20027;-79
2023/07/23 00:59:10;;;;;;;11.70;6.88;;;;;;;19.36;100.00;92626.97;4811494;29;20193;-79
2023/07/23 01:01:36;;;;;;;14.13;8.07;;;;;;;19.36;100.00;92632.25;4793351;29;20081;-79
2023/07/23 01:04:02;;;;;;;14.80;8.52;;;;;;;19.34;100.00;92624.66;4809789;29;20039;-79
2023/07/23 01:06:31;;;;;;;14.32;8.40;;;;;;;19.34;100.00;92629.97;4809012;29;20057;-79
2023/07/23 01:08:59;;;;;;;14.70;7.68;;;;;;;19.34;100.00;92627.31;4810571;29;20045;-78
2023/07/23 01:11:26;;;;;;;10.65;7.28;;;;;;;19.36;100.00;92629.59;4811031;29;20060;-79
2023/07/23 01:13:53;;;;;;;11.82;7.15;;;;;;;19.34;100.00;92634.47;4815095;29;20042;-78
2023/07/23 01:16:19;;;;;;;12.45;7.45;;;;;;;19.36;100.00;92632.25;4808788;29;20392;-78
2023/07/23 01:18:45;;;;;;;14.07;7.97;;;;;;;19.31;100.00;92630.63;4807256;29;20034;-78
2023/07/23 01:21:11;;;;;;;15.40;7.85;;;;;;;19.33;100.00;92638.25;4809365;29;20195;-79
2023/07/23 01:23:37;;;;;;;12.88;8.27;;;;;;;19.34;100.00;92624.66;4810491;29;20035;-79
2023/07/23 01:26:04;;;;;;;13.77;8.68;;;;;;;19.34;100.00;92632.63;4807576;29;20042;-78
2023/07/23 01:28:30;;;;;;;15.90;10.65;;;;;;;19.40;100.00;92627.06;4807477;29;20043;-79
2023/07/23 01:30:56;;;;;;;15.15;9.95;;;;;;;19.34;100.00;92631.81;4806996;29;20267;-79
2023/07/23 01:33:25;;;;;;;16.33;9.48;;;;;;;19.31;100.00;92630.63;4808615;29;20039;-78
2023/07/23 01:35:54;;;;;;;17.95;9.15;;;;;;;19.31;100.00;92629.84;4808667;29;20047;-79
2023/07/23 01:38:20;;;;;;;17.77;9.85;;;;;;;19.29;100.00;92632.84;4807703;29;20417;-79
2023/07/23 01:40:47;;;;;;;16.58;9.63;;;;;;;19.29;100.00;92627.53;4813755;29;20258;-78
2023/07/23 01:43:13;;;;;;;15.48;9.02;;;;;;;19.28;100.00;92626.00;4808621;29;20050;-79
2023/07/23 01:45:46;;;;;;;14.18;9.05;;;;;;;19.31;100.00;92620.00;4808713;29;20078;-78
2023/07/23 01:48:13;;;;;;;14.88;8.65;;;;;;;19.32;100.00;92629.53;4811487;29;20051;-79
2023/07/23 01:50:39;;;;;;;15.02;10.35;;;;;;;19.32;100.00;92629.53;4815163;29;20482;-78
2023/07/23 01:53:06;;;;;;;16.88;9.45;;;;;;;19.34;100.00;92632.63;4805175;29;20035;-78
2023/07/23 01:55:33;;;;;;;20.25;11.10;;;;;;;19.37;100.00;92625.09;4808285;29;20142;-78
2023/07/23 01:57:59;;;;;;;17.15;11.32;;;;;;;19.37;100.00;92627.75;4809105;29;20042;-79
2023/07/23 02:00:24;;;;;;;16.40;11.43;;;;;;;19.39;100.00;92625.53;4813046;29;20046;-78
2023/07/23 02:02:50;;;;;;;23.88;13.23;;;;;;;19.54;100.00;92624.78;4810821;29;20046;-79
2023/07/23 02:05:21;;;;;;;20.85;12.95;;;;;;;19.49;100.00;92620.50;4808668;29;20034;-78
2023/07/23 02:07:47;;;;;;;18.88;12.52;;;;;;;19.45;100.00;92618.84;4808515;29;20047;-79
2023/07/23 02:10:12;;;;;;;19.70;12.30;;;;;;;19.42;100.00;92619.53;4809358;29;20405;-79
2023/07/23 02:12:38;;;;;;;18.60;12.43;;;;;;;19.46;100.00;92615.09;4808183;29;20030;-79
2023/07/23 02:15:04;;;;;;;21.85;13.05;;;;;;;19.39;100.00;92622.88;4807608;29;20054;-78
2023/07/23 02:17:30;;;;;;;23.67;13.88;;;;;;;19.37;100.00;92625.09;4809175;29;20046;-79
2023/07/23 02:19:56;;;;;;;26.52;13.70;;;;;;;19.34;100.00;92618.56;4808148;29;20050;-79
2023/07/23 02:22:21;;;;;;;25.67;13.25;;;;;;;19.36;100.00;92616.34;4808311;29;20180;-79
2023/07/23 02:24:47;;;;;;;24.95;13.02;;;;;;;19.34;100.00;92614.03;4809550;29;20513;-79
2023/07/23 02:27:14;;;;;;;27.60;14.07;;;;;;;19.32;100.00;92621.56;4807981;29;20043;-79
2023/07/23 02:29:40;;;;;;;22.73;13.85;;;;;;;19.29;100.00;92622.22;4811713;29;20038;-79
2023/07/23 02:32:07;;;;;;;19.45;11.00;;;;;;;19.29;100.00;92627.53;4810022;29;20046;-78
2023/07/23 02:34:33;;;;;;;18.77;11.38;;;;;;;19.26;100.00;92625.56;4809487;29;20047;-79
2023/07/23 02:36:58;;;;;;;19.45;12.57;;;;;;;19.25;100.00;92621.38;4808818;29;20383;-79
2023/07/23 02:39:24;;;;;;;15.18;9.02;;;;;;;19.22;100.00;92623.91;4811484;29;20092;-78
2023/07/23 02:41:49;;;;;;;12.30;7.70;;;;;;;19.11;100.00;92616.41;4808820;29;20056;-78
2023/07/23 02:44:15;;;;;;;14.52;8.07;;;;;;;19.11;100.00;92619.06;4821693;29;20042;-79
2023/07/23 02:46:41;;;;;;;17.55;10.48;;;;;;;19.11;100.00;92619.06;4807650;29;20046;-78
2023/07/23 02:49:07;;;;;;;14.07;8.43;;;;;;;19.13;100.00;92632.78;4810656;29;20074;-78
2023/07/23 02:51:32;;;;;;;13.90;8.15;;;;;;;19.07;100.00;92628.81;4811197;29;20130;-79
2023/07/23 02:53:58;;;;;;;14.88;8.82;;;;;;;19.02;100.00;92629.03;4816568;29;20472;-79
2023/07/23 02:56:24;;;;;;;14.18;8.15;;;;;;;18.99;100.00;92623.63;4809055;29;20498;-78
2023/07/23 02:58:49;;;;;;;13.85;7.50;;;;;;;18.96;100.00;92618.97;4807219;29;20038;-78
2023/07/23 03:01:15;;;;;;;15.48;8.65;;;;;;;18.91;100.00;92617.34;4808576;29;20063;-79
2023/07/23 03:03:40;;;;;;;13.75;8.57;;;;;;;18.89;100.00;92617.69;4809624;29;20041;-77
2023/07/23 03:06:08;;;;;;;13.40;9.13;;;;;;;18.90;100.00;92619.22;4805835;29;20457;-79
2023/07/23 03:08:34;;;;;;;14.45;8.98;;;;;;;18.90;100.00;92613.91;4807126;29;20454;-78
2023/07/23 03:10:59;;;;;;;15.45;8.70;;;;;;;18.91;100.00;92618.13;4808685;29;20049;-79
2023/07/23 03:13:26;;;;;;;20.80;9.38;;;;;;;18.92;100.00;92614.34;4807071;29;20070;-79
2023/07/23 03:15:51;;;;;;;16.73;9.50;;;;;;;18.92;100.00;92609.06;4809453;29;20410;-79
2023/07/23 03:18:17;;;;;;;19.92;9.25;;;;;;;18.92;100.00;92606.41;4807265;29;20047;-79
2023/07/23 03:20:42;;;;;;;16.48;9.95;;;;;;;18.92;100.00;92606.41;4807020;29;20039;-78
2023/07/23 03:23:08;;;;;;;18.80;9.52;;;;;;;18.93;100.00;92601.88;4810028;29;20505;-79
2023/07/23 03:25:34;;;;;;;22.38;9.38;;;;;;;18.97;100.00;92599.31;4810534;29;20038;-80
2023/07/23 03:27:59;;;;;;;16.60;9.55;;;;;;;18.90;100.00;92603.31;4810396;29;20049;-79
2023/07/23 03:30:28;;;;;;;15.15;9.48;;;;;;;18.84;100.00;92601.22;4811610;29;20087;-79
2023/07/23 03:32:54;;;;;;;23.02;10.65;;;;;;;18.79;100.00;92607.53;4813555;29;20074;-80
2023/07/23 03:35:21;;;;;;;20.83;10.40;;;;;;;18.78;100.00;92618.47;4814090;29;20125;-80
2023/07/23 03:37:47;;;;;;;19.95;11.18;;;;;;;18.80;100.00;92634.81;4799064;29;20026;-79
2023/07/23 03:40:13;;;;;;;24.05;11.68;;;;;;;18.81;100.00;92629.19;4816482;29;20038;-80
2023/07/23 03:42:38;;;;;;;17.48;10.35;;;;;;;18.77;100.00;92625.66;4812245;29;20468;-80
2023/07/23 03:45:05;;;;;;;15.73;9.82;;;;;;;18.60;100.00;92629.28;4810488;29;20498;-79
2023/07/23 03:47:30;;;;;;;14.80;9.35;;;;;;;18.51;100.00;92632.03;4815954;29;20058;-80
2023/07/23 03:49:56;;;;;;;17.52;10.15;;;;;;;18.46;100.00;92634.94;4812513;29;20031;-79
2023/07/23 03:52:22;;;;;;;17.60;9.95;;;;;;;18.44;100.00;92631.03;4813947;29;20069;-80
2023/07/23 03:54:48;;;;;;;17.75;11.05;;;;;;;18.45;100.00;92633.38;4815752;29;20051;-79
2023/07/23 03:57:14;;;;;;;21.40;12.80;;;;;;;18.48;100.00;92638.00;4812392;29;20387;-80
2023/07/23 03:59:44;;;;;;;19.83;11.27;;;;;;;18.44;100.00;92642.44;4810880;29;20124;-79
2023/07/23 04:02:11;;;;;;;21.52;11.73;;;;;;;18.43;100.00;92624.97;4816969;29;20043;-79
2023/07/23 04:04:38;;;;;;;18.60;11.35;;;;;;;18.41;100.00;92631.72;4800803;29;20052;-80
2023/07/23 04:07:04;;;;;;;21.17;12.30;;;;;;;18.35;100.00;92641.78;4815763;29;20100;-78
2023/07/23 04:09:30;;;;;;;19.98;12.07;;;;;;;18.40;100.00;92646.84;4810822;29;20042;-79
2023/07/23 04:11:56;;;;;;;21.45;12.65;;;;;;;18.31;100.00;92643.53;4810007;29;20506;-80
2023/07/23 04:14:23;;;;;;;23.65;13.38;;;;;;;18.36;100.00;92648.59;4812603;29;20415;-80
2023/07/23 04:16:49;;;;;;;22.33;13.80;;;;;;;18.26;100.00;92659.63;4812020;29;20031;-79
2023/07/23 04:19:15;;;;;;;32.35;10.57;;;;;;;18.22;100.00;92672.00;4811742;29;20618;-80
2023/07/23 04:21:41;;;;;;;18.50;10.93;;;;;;;18.11;100.00;92676.94;4812853;29;20050;-79
2023/07/23 04:24:06;;;;;;;27.77;10.93;;;;;;;18.01;100.00;92682.63;4817469;29;20445;-79
2023/07/23 04:26:32;;;;;;;20.05;12.40;;;;;;;17.79;100.00;92687.19;4809242;29;20050;-79
2023/07/23 04:28:58;;;;;;;23.20;13.20;;;;;;;17.70;100.00;92689.16;4811917;29;20039;-80
2023/07/23 04:31:24;;;;;;;20.65;12.27;;;;;;;17.67;100.00;92668.59;4811904;29;20062;-79
2023/07/23 04:33:50;;;;;;;24.20;13.60;;;;;;;17.68;100.00;92655.03;4806663;29;20046;-79
2023/07/23 04:36:16;;;;;;;27.95;13.63;;;;;;;17.72;100.00;92659.69;4805770;29;20452;-79
2023/07/23 04:38:44;;;;;;;28.33;14.77;;;;;;;17.78;100.00;92661.03;4810966;29;20490;-80
2023/07/23 04:41:10;;;;;;;25.30;14.80;;;;;;;17.85;100.00;92669.25;4812008;29;20309;-79
2023/07/23 04:43:36;;;;;;;1030.75;34.00;;;;;;;17.65;100.00;92660.19;4812376;29;20038;-80
2023/07/23 04:46:04;;;;;;;108.82;14.68;;;;;;;17.64;100.00;92664.72;4810038;29;20051;-80
2023/07/23 04:48:34;;;;;;;28.80;13.40;;;;;;;17.54;100.00;92659.06;4809162;29;20125;-79
2023/07/23 04:51:02;;;;;;;26.25;13.93;;;;;;;17.48;100.00;92646.03;4812181;29;20046;-78
2023/07/23 04:53:28;;;;;;;27.83;13.45;;;;;;;17.52;100.00;92662.03;4809357;29;20484;-79
2023/07/23 04:55:54;;;;;;;24.92;13.68;;;;;;;17.55;100.00;92666.69;4809030;29;20041;-79
2023/07/23 04:58:21;;;;;;;23.08;13.20;;;;;;;17.57;100.00;92669.00;4812793;29;20502;-79
2023/07/23 05:00:47;;;;;;;32.13;15.00;;;;;;;17.71;100.00;92668.72;4810601;29;20046;-79
2023/07/23 05:03:13;;;;;;;24.63;13.73;;;;;;;17.77;100.00;92670.09;4810669;29;20409;-79
2023/07/23 05:05:45;;;;;;;23.00;13.40;;;;;;;17.89;100.00;92683.38;4810306;29;20037;-79
2023/07/23 05:08:10;;;;;;;;;;;;;;;18.04;100.00;92684.66;4811430;29;20049;-79
2023/07/23 05:10:36;;;;;;;25.10;14.40;;;;;;;18.09;100.00;92674.59;4804715;29;19925;-80
2023/07/23 05:13:02;;;;;;;23.65;14.80;;;;;;;18.20;100.00;92671.56;4805750;29;20078;-80
2023/07/23 05:15:28;;;;;;;29.42;13.07;;;;;;;18.22;100.00;92685.25;4813953;29;20117;-79
2023/07/23 05:17:54;;;;;;;29.38;14.63;;;;;;;18.15;100.00;92709.63;4809416;29;20462;-79
2023/07/23 05:20:20;;;;;;;27.98;14.10;;;;;;;18.08;100.00;92710.16;4808849;29;20070;-79
2023/07/23 05:22:45;;;;;;;25.70;13.95;;;;;;;18.03;100.00;92704.28;4812924;29;20060;-80
2023/07/23 05:25:11;;;;;;;29.85;14.32;;;;;;;18.01;100.00;92683.44;4818460;29;20045;-79
2023/07/23 05:27:37;;;;;;;32.95;15.63;;;;;;;18.06;100.00;92696.47;4804660;29;20037;-80
2023/07/23 05:30:04;;;;;;;33.15;17.10;;;;;;;18.13;100.00;92700.47;4809512;29;20051;-79
2023/07/23 05:32:31;;;;;;;37.63;16.35;;;;;;;18.20;100.00;92698.03;4810829;29;20031;-79
2023/07/23 05:34:57;;;;;;;31.10;15.88;;;;;;;18.33;100.00;92698.81;4809768;29;20035;-79
2023/07/23 05:37:23;;;;;;;27.65;15.25;;;;;;;18.44;100.00;92710.53;4811440;29;20035;-79
2023/07/23 05:39:49;;;;;;;654.00;26.08;;;;;;;18.45;100.00;92728.00;4810851;29;20124;-79
2023/07/23 05:42:15;;;;;;;1999.90;63.90;;;;;;;17.96;100.00;92733.16;4809086;29;20058;-78
2023/07/23 05:44:40;;;;;;;120.13;14.95;;;;;;;17.74;100.00;92721.78;4811802;29;20062;-78
2023/07/23 05:47:06;;;;;;;26.38;13.60;;;;;;;17.74;100.00;92710.44;4807314;29;20058;-79
2023/07/23 05:49:31;;;;;;;35.45;16.10;;;;;;;17.80;100.00;92699.31;4811646;29;20070;-79
2023/07/23 05:51:59;;;;;;;31.10;15.75;;;;;;;18.10;100.00;92713.25;4811958;29;20050;-79
2023/07/23 05:54:25;;;;;;;31.85;16.55;;;;;;;18.30;100.00;92708.97;4816982;29;20042;-80
2023/07/23 05:56:51;;;;;;;31.67;16.55;;;;;;;18.49;100.00;92719.06;4810103;29;20046;-79
2023/07/23 05:59:16;;;;;;;30.25;16.30;;;;;;;18.60;100.00;92723.94;4814663;29;20053;-79
2023/07/23 06:01:42;;;;;;;31.60;16.40;;;;;;;18.66;100.00;92727.94;4812525;29;20398;-79
2023/07/23 06:04:08;;;;;;;594.53;27.20;;;;;;;18.44;100.00;92729.09;4812433;29;20034;-80
2023/07/23 06:06:34;;;;;;;34.58;16.10;;;;;;;18.37;100.00;92726.22;4806357;29;20045;-79
2023/07/23 06:08:59;;;;;;;30.60;16.48;;;;;;;18.26;100.00;92734.59;4810005;29;20047;-80
2023/07/23 06:11:25;;;;;;;36.72;17.88;;;;;;;18.29;100.00;92730.53;4810487;29;20062;-80
2023/07/23 06:13:51;;;;;;;39.03;18.10;;;;;;;18.41;100.00;92721.81;4812804;29;20050;-80
2023/07/23 06:16:16;;;;;;;42.20;19.70;;;;;;;18.57;100.00;92729.91;4817069;29;20458;-80
2023/07/23 06:18:42;;;;;;;40.80;18.88;;;;;;;18.68;100.00;92731.78;4810049;29;20100;-78
2023/07/23 06:21:07;;;;;;;38.83;18.77;;;;;;;18.68;100.00;92731.78;4809782;29;20082;-78
2023/07/23 06:23:34;;;;;;;34.60;18.00;;;;;;;18.71;100.00;92730.34;4808640;29;20047;-79
2023/07/23 06:25:59;;;;;;;37.30;17.27;;;;;;;18.89;100.00;92734.38;4811402;29;20099;-79
2023/07/23 06:28:25;;;;;;;1999.90;61.17;;;;;;;18.77;100.00;92738.88;4810621;29;20494;-80
2023/07/23 06:30:52;;;;;;;1226.72;39.15;;;;;;;18.77;100.00;92750.28;4811527;29;20035;-79
2023/07/23 06:33:17;;;;;;;1999.90;67.45;;;;;;;18.67;100.00;92738.22;4814088;29;20050;-79
2023/07/23 06:35:44;;;;;;;1999.90;63.28;;;;;;;18.42;100.00;92744.59;4819892;29;20050;-79
2023/07/23 06:38:09;;;;;;;1999.90;61.80;;;;;;;18.31;100.00;92752.16;4811624;29;20046;-79
2023/07/23 06:40:35;;;;;;;430.83;23.25;;;;;;;18.17;100.00;92752.47;4804904;29;20134;-80
2023/07/23 06:43:01;;;;;;;132.40;19.88;;;;;;;18.20;100.00;92754.44;4807543;29;20043;-81
2023/07/23 06:45:27;;;;;;;39.42;19.05;;;;;;;18.29;100.00;92743.78;4811420;29;20148;-79
2023/07/23 06:47:52;;;;;;;36.05;19.15;;;;;;;18.46;100.00;92735.66;4800627;29;20055;-79
2023/07/23 06:50:18;;;;;;;41.78;19.85;;;;;;;18.95;100.00;92734.16;4804683;29;20041;-79
2023/07/23 06:52:44;;;;;;;37.08;19.30;;;;;;;19.10;100.00;92736.91;4816382;29;20547;-79
2023/07/23 06:55:10;;;;;;;38.88;18.80;;;;;;;19.33;100.00;92745.19;4812492;29;20058;-79
2023/07/23 06:57:36;;;;;;;89.70;17.58;;;;;;;19.66;100.00;92754.88;4820898;29;20034;-79
2023/07/23 07:00:03;;;;;;;1496.88;44.78;;;;;;;19.20;100.00;92751.59;4817074;29;20041;-79
2023/07/23 07:02:28;;;;;;;1999.90;63.55;;;;;;;18.58;100.00;92745.50;4817611;29;20391;-79
2023/07/23 07:04:54;;;;;;;1046.22;30.85;;;;;;;18.17;100.00;92746.38;4816266;29;20046;-79
2023/07/23 07:07:19;;;;;;;1999.90;62.75;;;;;;;17.83;100.00;92749.03;4817482;29;20110;-78
2023/07/23 07:09:46;;;;;;;1211.28;37.08;;;;;;;17.58;100.00;92761.31;4817677;29;20107;-79
2023/07/23 07:12:11;;;;;;;664.70;31.00;;;;;;;17.41;100.00;92751.63;4817254;29;20394;-78
2023/07/23 07:14:37;;;;;;;55.17;19.85;;;;;;;17.47;100.00;92760.13;4817181;29;20047;-79
2023/07/23 07:17:03;;;;;;;53.13;20.63;;;;;;;17.55;100.00;92761.97;4812913;29;20505;-79
2023/07/23 07:19:28;;;;;;;576.42;31.70;;;;;;;17.44;100.00;92752.84;4813922;29;20125;-78
2023/07/23 07:21:54;;;;;;;47.67;19.85;;;;;;;17.48;100.00;92764.34;4817462;29;20035;-78
2023/07/23 07:24:19;;;;;;;53.13;22.48;;;;;;;17.72;100.00;92757.63;4817368;29;20054;-78
2023/07/23 07:26:45;;;;;;;60.10;25.55;;;;;;;18.17;100.00;92762.25;4793265;29;20139;-79
2023/07/23 07:29:11;;;;;;;54.50;25.75;;;;;;;18.78;100.00;92757.16;4813898;29;20089;-79
2023/07/23 07:31:36;;;;;;;44.65;21.67;;;;;;;18.88;100.00;92755.94;4816894;29;20358;-79
2023/07/23 07:34:02;;;;;;;41.95;22.10;;;;;;;18.86;100.00;92753.59;4808617;29;20104;-78
2023/07/23 07:36:28;;;;;;;41.10;20.25;;;;;;;19.05;100.00;92744.31;4815700;29;20039;-79
2023/07/23 07:38:54;;;;;;;43.00;20.45;;;;;;;19.32;100.00;92756.91;4815075;29;20087;-79
2023/07/23 07:41:19;;;;;;;46.03;20.05;;;;;;;19.78;100.00;92764.72;4814653;29;20142;-80
2023/07/23 07:43:45;;;;;;;37.25;19.10;;;;;;;19.88;100.00;92763.47;4784066;29;20064;-79
2023/07/23 07:46:11;;;;;;;43.55;20.27;;;;;;;20.25;100.00;92760.69;4815986;29;20059;-80
2023/07/23 07:48:37;;;;;;;42.80;20.20;;;;;;;20.10;100.00;92765.59;4817267;29;20039;-80
2023/07/23 07:51:05;;;;;;;44.58;18.55;;;;;;;19.90;100.00;92777.94;4818769;29;20053;-79
2023/07/23 07:53:32;;;;;;;67.30;20.38;;;;;;;19.72;100.00;92776.66;4822102;29;20041;-79
2023/07/23 07:55:58;;;;;;;155.60;22.35;;;;;;;19.23;100.00;92771.41;4822888;29;20046;-80
2023/07/23 07:58:24;;;;;;;699.55;31.70;;;;;;;18.78;100.00;92778.38;4818556;29;20035;-79
2023/07/23 08:00:54;;;;;;;300.48;27.13;;;;;;;18.66;100.00;92783.59;4817740;29;20055;-79
2023/07/23 08:03:26;;;;;;;543.63;33.22;;;;;;;18.54;100.00;92779.06;4818166;29;20081;-79
2023/07/23 08:05:53;;;;;;;61.55;23.70;;;;;;;18.67;100.00;92777.22;4820061;29;20039;-78
2023/07/23 08:08:27;;;;;;;124.07;26.52;;;;;;;18.75;100.00;92778.19;4809358;29;20050;-78
2023/07/23 08:10:58;;;;;;;49.15;23.58;;;;;;;18.80;100.00;92773.50;4811231;29;20125;-78
2023/07/23 08:13:24;;;;;;;50.85;22.67;;;;;;;19.18;100.00;92783.00;4812834;29;20476;-78
2023/07/23 08:15:51;;;;;;;50.97;22.80;;;;;;;19.37;100.00;92787.00;4815541;29;20030;-79
2023/07/23 08:18:17;;;;;;;48.53;22.73;;;;;;;19.78;100.00;92785.19;4815952;29;20046;-79
2023/07/23 08:20:43;;;;;;;42.85;19.63;;;;;;;19.94;100.00;92794.00;4816186;29;20057;-78
2023/07/23 08:23:09;;;;;;;44.28;20.02;;;;;;;19.98;100.00;92792.22;4816745;29;20122;-79
2023/07/23 08:25:37;;;;;;;43.00;18.92;;;;;;;20.20;100.00;92790.94;4811587;29;20092;-78
2023/07/23 08:28:03;;;;;;;43.58;18.35;;;;;;;20.81;100.00;92784.56;4827683;29;20046;-79
2023/07/23 08:30:30;;;;;;;38.45;17.23;;;;;;;21.37;100.00;92787.03;4829319;29;20057;-79
2023/07/23 08:33:00;;;;;;;41.35;16.73;;;;;;;21.57;100.00;92779.91;4814709;29;20035;-79
2023/07/23 08:35:28;;;;;;;39.97;16.40;;;;;;;21.65;100.00;92785.38;4810672;29;20099;-78
2023/07/23 08:37:55;;;;;;;37.55;17.40;;;;;;;21.41;100.00;92781.81;4809779;29;20485;-78
2023/07/23 08:40:23;;;;;;;31.75;15.90;;;;;;;21.68;100.00;92782.00;4810213;29;20083;-78
2023/07/23 08:42:55;;;;;;;42.42;17.65;;;;;;;21.72;100.00;92778.31;4809786;29;20076;-79
2023/07/23 08:48:14;;;;;;;41.28;16.45;;;;;;;21.91;100.00;92780.22;4808546;29;20075;-79
2023/07/23 08:50:42;;;;;;;36.28;16.10;;;;;;;21.69;100.00;92770.25;4818138;29;20042;-79
2023/07/23 08:53:10;;;;;;;38.72;16.25;;;;;;;21.85;100.00;92770.97;4810277;29;20425;-79
2023/07/23 08:55:36;;;;;;;39.72;17.70;;;;;;;22.03;100.00;92774.00;4810620;29;20035;-78
2023/07/23 08:58:02;;;;;;;38.97;16.60;;;;;;;22.11;100.00;92774.91;4809518;29;20038;-78
2023/07/23 09:00:29;;;;;;;42.80;16.83;;;;;;;22.15;100.00;92776.50;4809196;29;20042;-79
2023/07/23 09:02:55;;;;;;;39.22;18.10;;;;;;;22.22;100.00;92782.03;4811083;29;20038;-78
2023/07/23 09:05:21;;;;;;;42.00;17.80;;;;;;;22.07;100.00;92774.06;4807798;29;20502;-79
2023/07/23 09:07:46;;;;;;;48.90;17.88;;;;;;;22.20;100.00;92759.44;4808132;29;20046;-78
2023/07/23 09:10:12;;;;;;;35.90;18.10;;;;;;;22.12;100.00;92765.78;4807030;29;20118;-79
2023/07/23 09:12:41;;;;;;;38.53;15.82;;;;;;;22.27;100.00;92766.84;4808816;29;20049;-78
2023/07/23 09:15:07;;;;;;;37.53;16.40;;;;;;;22.53;100.00;92758.19;4810358;29;20057;-78
2023/07/23 09:17:33;;;;;;;35.20;17.58;;;;;;;22.26;100.00;92767.97;4822545;29;20470;-78
2023/07/23 09:19:59;;;;;;;37.17;15.63;;;;;;;22.35;100.00;92763.19;4808136;29;20039;-78
2023/07/23 09:22:24;;;;;;;36.40;16.58;;;;;;;22.19;100.00;92764.03;4808926;29;20043;-77
2023/07/23 09:24:58;;;;;;;34.35;14.70;;;;;;;22.30;100.00;92766.94;4809334;29;20539;-78
2023/07/23 09:27:23;;;;;;;32.58;15.60;;;;;;;22.20;100.00;92770.91;4808342;29;20110;-78
2023/07/23 09:29:49;;;;;;;36.15;17.08;;;;;;;22.05;100.00;92769.09;4807715;29;20556;-79
2023/07/23 09:32:25;;;;;;;31.67;16.40;;;;;;;22.41;100.00;92761.81;4807428;29;20406;-78
2023/07/23 09:34:52;;;;;;;33.00;15.88;;;;;;;22.45;100.00;92762.63;4808375;29;20046;-78
2023/07/23 09:37:18;;;;;;;31.23;15.45;;;;;;;22.61;100.00;92762.53;4807983;29;20133;-78
2023/07/23 09:39:43;;;;;;;34.30;16.08;;;;;;;22.76;100.00;92755.53;4807003;29;20131;-78
2023/07/23 09:42:10;;;;;;;34.65;14.73;;;;;;;22.59;100.00;92754.88;4807364;29;20050;-78
2023/07/23 09:44:41;;;;;;;32.50;13.90;;;;;;;22.50;100.00;92761.59;4806923;29;20107;-78
2023/07/23 09:47:07;;;;;;;32.22;15.07;;;;;;;22.29;100.00;92775.28;4803749;29;20463;-78
2023/07/23 09:49:33;;;;;;;32.45;15.07;;;;;;;22.06;100.00;92770.63;4804436;29;20049;-81
2023/07/23 09:52:03;;;;;;;34.80;16.55;;;;;;;22.23;100.00;92782.78;4807643;29;20724;-79
2023/07/23 09:54:28;;;;;;;38.08;17.58;;;;;;;22.16;100.00;92785.28;4806511;29;20137;-78
2023/07/23 09:56:55;;;;;;;42.97;16.10;;;;;;;22.05;100.00;92787.75;4806574;29;20095;-78
2023/07/23 09:59:22;;;;;;;33.17;16.70;;;;;;;22.04;100.00;92786.19;4800097;29;20738;-78
2023/07/23 10:01:48;;;;;;;42.78;16.92;;;;;;;21.77;100.00;92786.03;4810917;29;20042;-79
2023/07/23 10:04:15;;;;;;;38.10;18.65;;;;;;;21.83;100.00;92787.28;4803604;29;20125;-79
2023/07/23 10:06:42;;;;;;;29.98;16.27;;;;;;;21.93;100.00;92785.19;4810785;29;20037;-79
2023/07/23 10:09:10;;;;;;;35.30;17.58;;;;;;;22.27;100.00;92788.19;4807251;29;20043;-78
2023/07/23 10:11:35;;;;;;;38.92;15.70;;;;;;;22.51;100.00;92787.88;4806667;29;20484;-78
2023/07/23 10:14:02;;;;;;;36.08;16.67;;;;;;;22.73;100.00;92791.72;4805245;29;20099;-80
2023/07/23 10:16:38;;;;;;;31.05;15.05;;;;;;;23.21;100.00;92794.06;4807571;29;20111;-79
2023/07/23 10:19:04;;;;;;;33.25;14.15;;;;;;;23.60;100.00;92791.22;4799238;29;20038;-79
2023/07/23 10:21:32;;;;;;;28.88;12.10;;;;;;;23.41;100.00;92792.06;4797006;29;20036;-79
2023/07/23 10:23:59;;;;;;;30.85;13.55;;;;;;;23.48;100.00;92792.19;4804615;29;20049;-77
2023/07/23 10:26:38;;;;;;;34.17;13.80;;;;;;;23.22;100.00;92787.59;4807441;29;20035;-78
2023/07/23 10:29:06;;;;;;;27.67;12.77;;;;;;;23.17;100.00;92791.34;4805222;29;20087;-78
2023/07/23 10:31:32;;;;;;;29.08;12.55;;;;;;;23.17;100.00;92793.22;4799804;29;20169;-78
2023/07/23 10:33:59;;;;;;;27.58;12.15;;;;;;;22.99;100.00;92793.72;4806538;29;20499;-79
2023/07/23 10:36:25;;;;;;;28.95;12.75;;;;;;;22.85;100.00;92794.22;4810238;29;20045;-78
2023/07/23 10:39:16;;;;;;;19.60;9.35;;;;;;;22.95;100.00;92798.19;4803536;29;20098;-78
2023/07/23 10:41:53;;;;;;;30.67;12.65;;;;;;;23.05;100.00;92789.59;4811580;29;20045;-79
2023/07/23 10:44:21;;;;;;;26.42;11.80;;;;;;;23.18;100.00;92792.09;4809317;29;20046;-78
2023/07/23 10:46:46;;;;;;;35.50;12.80;;;;;;;23.48;100.00;92792.19;4808285;29;20462;-78
2023/07/23 10:49:19;;;;;;;29.50;12.27;;;;;;;23.33;100.00;92785.88;4802248;29;20134;-80
2023/07/23 10:51:45;;;;;;;34.40;15.30;;;;;;;23.36;100.00;92795.81;4808185;29;20050;-78
2023/07/23 10:54:11;;;;;;;28.80;13.07;;;;;;;23.37;100.00;92784.03;4810219;29;20068;-77
2023/07/23 10:56:41;;;;;;;28.88;14.07;;;;;;;23.43;100.00;92787.91;4825670;29;20031;-77
2023/07/23 10:59:14;;;;;;;33.30;13.18;;;;;;;23.93;100.00;92787.09;4812385;29;20049;-77
2023/07/23 11:01:42;;;;;;;32.65;14.05;;;;;;;24.09;100.00;92795.72;4812263;29;20039;-77
2023/07/23 11:04:13;;;;;;;30.90;13.20;;;;;;;23.79;100.00;92791.13;4815807;29;20371;-77
2023/07/23 11:06:54;;;;;;;28.20;12.68;;;;;;;23.53;100.00;92791.09;4803627;29;20118;-77
2023/07/23 11:09:27;;;;;;;36.53;16.05;;;;;;;23.38;100.00;92796.25;4803605;29;20121;-77